Time;durP1;ratioP1;P1;durP2;ratioP2;P2;SDS_P1;SDS_P2;PMS_P1;PMS_P2;Temp;Humidity;BMP_temperature;BMP_pressure;BME280_temperature;BME280_humidity;BME280_pressure;Samples;Min_cycle;Max_cycle;Signal;HPM_P1;HPM_P2
2024/01/05 06:18:08;;;;;;;5.15;2.65;;;;;;;4.81;72.16;95441.31;4998977;28;20066;-81
2024/01/05 07:44:09;;;;;;;12.77;4.13;;;;;;;4.28;73.20;95427.50;6125828;23;19946;-72
2024/01/05 07:46:41;;;;;;;10.65;5.15;;;;;;;4.25;73.26;95433.00;4992667;28;20604;-78
2024/01/05 07:49:09;;;;;;;7.73;5.83;;;;;;;4.24;73.53;95432.22;4994441;28;20080;-79
2024/01/05 07:51:37;;;;;;;5.10;4.57;;;;;;;4.25;73.29;95435.59;5002436;28;20134;-76
2024/01/05 07:54:08;;;;;;;6.22;5.25;;;;;;;4.26;73.71;95443.16;5017980;28;20043;-78
2024/01/05 07:56:38;;;;;;;8.43;5.50;;;;;;;4.28;73.37;95455.88;5013127;28;20077;-79
2024/01/05 07:59:04;;;;;;;9.70;5.82;;;;;;;4.28;73.45;95450.72;5029131;23;20046;-78
2024/01/05 08:01:33;;;;;;;8.88;5.10;;;;;;;4.28;73.65;95454.09;4995321;28;20094;-76
2024/01/05 08:04:01;;;;;;;6.93;5.55;;;;;;;4.28;73.82;95437.81;4995030;28;20057;-77
2024/01/05 08:06:29;;;;;;;5.78;4.53;;;;;;;4.30;73.61;95447.00;4994403;28;20054;-77
2024/01/05 08:08:56;;;;;;;6.95;4.68;;;;;;;4.33;73.84;95445.88;4994378;28;20498;-77
2024/01/05 08:11:24;;;;;;;7.38;5.10;;;;;;;4.36;74.11;95440.34;4994591;28;20076;-77
2024/01/05 08:13:52;;;;;;;9.07;5.32;;;;;;;4.40;73.78;95440.81;4994048;28;20106;-77
2024/01/05 08:16:19;;;;;;;9.40;5.70;;;;;;;4.42;73.50;95437.09;4994126;28;20069;-77
2024/01/05 08:18:48;;;;;;;8.95;5.28;;;;;;;4.45;73.60;95428.19;4994354;28;20073;-77
2024/01/05 08:21:16;;;;;;;10.45;5.72;;;;;;;4.48;73.66;95431.25;4994064;28;20130;-77
2024/01/05 08:23:43;;;;;;;10.38;5.72;;;;;;;4.53;73.85;95436.69;5002036;28;20050;-77
2024/01/05 08:26:11;;;;;;;10.65;4.90;;;;;;;4.59;73.42;95434.38;5001837;28;20142;-77
2024/01/05 08:28:39;;;;;;;5.50;4.45;;;;;;;4.63;73.53;95438.22;4994820;28;20141;-77
2024/01/05 08:31:07;;;;;;;8.88;5.03;;;;;;;4.67;73.47;95435.13;5001616;28;20089;-77
2024/01/05 08:33:35;;;;;;;7.95;4.80;;;;;;;4.68;73.34;95438.50;5014633;28;20061;-77
2024/01/05 08:36:04;;;;;;;6.03;5.00;;;;;;;4.68;73.32;95448.84;5014336;28;20043;-77
2024/01/05 08:38:31;;;;;;;6.40;4.30;;;;;;;4.68;73.14;95434.16;5009735;28;20046;-77
2024/01/05 08:40:59;;;;;;;9.05;4.68;;;;;;;4.69;73.10;95434.97;4996086;28;20060;-77
2024/01/05 08:43:27;;;;;;;7.63;4.32;;;;;;;4.69;72.99;95438.34;4994364;28;20572;-77
2024/01/05 08:45:55;;;;;;;6.78;5.00;;;;;;;4.73;73.00;95431.84;4994427;28;20097;-77
2024/01/05 08:48:22;;;;;;;8.40;5.55;;;;;;;4.76;73.01;95441.03;4994180;28;20148;-77
2024/01/05 08:50:50;;;;;;;10.05;4.97;;;;;;;4.79;73.00;95438.13;4993702;28;20054;-77
2024/01/05 08:53:20;;;;;;;9.88;5.75;;;;;;;4.84;72.63;95440.97;4993716;28;20520;-76
2024/01/05 08:55:48;;;;;;;6.65;4.20;;;;;;;4.85;72.73;95439.97;4994136;28;20053;-77
2024/01/05 08:58:16;;;;;;;6.93;5.07;;;;;;;4.89;72.60;95436.06;4994393;28;20050;-77
2024/01/05 09:00:43;;;;;;;8.02;4.95;;;;;;;4.97;72.48;95431.81;4993794;28;20056;-76
2024/01/05 09:03:11;;;;;;;10.77;5.80;;;;;;;5.01;72.34;95433.88;4993114;28;20058;-77
2024/01/05 09:05:39;;;;;;;12.65;6.10;;;;;;;5.05;72.34;95429.16;4993518;28;20089;-77
2024/01/05 09:08:06;;;;;;;8.48;5.07;;;;;;;5.08;72.48;95436.56;4993195;28;20050;-79
2024/01/05 09:10:35;;;;;;;11.77;4.60;;;;;;;5.11;72.36;95428.44;4993327;28;20133;-80
2024/01/05 09:13:03;;;;;;;5.45;4.38;;;;;;;5.16;72.38;95431.31;4992956;28;20070;-79
2024/01/05 09:15:31;;;;;;;7.60;4.00;;;;;;;5.21;72.02;95429.00;4993238;28;20093;-79
2024/01/05 09:17:58;;;;;;;6.13;3.88;;;;;;;5.29;72.16;95428.94;4992700;28;20516;-79
2024/01/05 09:20:26;;;;;;;9.82;5.05;;;;;;;5.36;71.69;95426.44;4992888;28;20054;-79
2024/01/05 09:22:54;;;;;;;8.45;4.53;;;;;;;5.42;71.83;95433.47;4992760;28;20105;-79
2024/01/05 09:25:22;;;;;;;7.13;3.67;;;;;;;5.48;71.81;95431.97;4992889;28;20405;-79
2024/01/05 09:27:51;;;;;;;7.20;4.13;;;;;;;5.51;71.41;95439.34;4992715;28;20108;-79
2024/01/05 09:30:18;;;;;;;7.70;4.10;;;;;;;5.55;71.37;95431.06;4992995;28;20138;-78
2024/01/05 09:32:46;;;;;;;5.13;3.65;;;;;;;5.60;71.16;95437.47;4992969;28;20165;-79
2024/01/05 09:35:14;;;;;;;5.43;3.75;;;;;;;5.65;71.17;95441.13;4995844;28;20094;-79
2024/01/05 09:37:42;;;;;;;11.30;6.07;;;;;;;5.70;71.09;95443.97;4993194;28;20105;-80
2024/01/05 09:40:11;;;;;;;8.43;4.95;;;;;;;5.77;71.11;95438.88;4992748;28;20061;-79
2024/01/05 09:42:41;;;;;;;6.38;4.22;;;;;;;5.83;70.83;95448.53;4993326;28;20134;-79
2024/01/05 09:45:11;;;;;;;6.35;3.67;;;;;;;5.88;70.70;95446.22;4994002;28;20054;-79
2024/01/05 09:47:40;;;;;;;7.95;3.72;;;;;;;5.93;70.04;95443.88;4999502;28;20054;-79
2024/01/05 09:50:10;;;;;;;9.00;3.95;;;;;;;6.00;70.33;95463.91;4993288;28;20046;-79
2024/01/05 09:52:38;;;;;;;6.40;3.55;;;;;;;6.06;70.40;95458.00;4993303;28;20050;-79
2024/01/05 09:55:07;;;;;;;8.45;3.83;;;;;;;6.12;70.44;95452.91;4992625;28;20082;-79
2024/01/05 09:57:36;;;;;;;9.60;4.55;;;;;;;6.21;70.10;95452.78;4992533;28;20046;-79
2024/01/05 10:00:04;;;;;;;8.48;4.10;;;;;;;6.29;69.88;95452.66;4992131;28;20496;-79
2024/01/05 10:02:40;;;;;;;5.53;4.13;;;;;;;6.37;69.34;95455.16;4992736;28;20050;-79
2024/01/05 10:05:09;;;;;;;11.55;5.35;;;;;;;6.44;69.48;95456.03;4993903;28;20113;-79
2024/01/05 10:07:41;;;;;;;15.35;5.78;;;;;;;6.51;69.18;95456.88;4992427;28;20128;-80
2024/01/05 10:10:10;;;;;;;7.38;4.65;;;;;;;6.56;69.14;95467.50;4992594;28;20054;-79
2024/01/05 10:12:38;;;;;;;13.80;6.93;;;;;;;6.60;68.97;95460.16;4992047;28;20090;-79
2024/01/05 10:15:07;;;;;;;8.60;6.65;;;;;;;6.66;69.09;95456.03;4994175;28;20050;-79
2024/01/05 10:17:36;;;;;;;10.88;5.05;;;;;;;6.71;68.74;95457.09;4996373;28;20054;-79
2024/01/05 10:20:14;;;;;;;9.93;4.30;;;;;;;6.76;68.33;95448.75;4995673;28;20052;-79
2024/01/05 10:22:46;;;;;;;8.10;5.07;;;;;;;6.83;68.67;95448.81;4995402;28;20077;-79
2024/01/05 10:25:15;;;;;;;5.95;4.20;;;;;;;6.89;68.52;95448.88;4996009;28;20058;-79
2024/01/05 10:27:42;;;;;;;9.68;5.22;;;;;;;6.97;68.63;95450.50;4995876;28;20394;-79
2024/01/05 10:30:22;;;;;;;16.77;8.30;;;;;;;7.05;68.37;95442.59;4995840;28;20526;-80
2024/01/05 10:33:03;;;;;;;10.88;5.60;;;;;;;7.14;67.54;95444.06;5000852;28;20078;-78
2024/01/05 10:35:31;;;;;;;10.85;5.45;;;;;;;7.23;67.96;95444.72;5005537;28;20050;-80
2024/01/05 10:38:09;;;;;;;11.52;5.43;;;;;;;7.32;67.40;95442.78;4995813;28;20137;-79
2024/01/05 10:40:37;;;;;;;10.23;5.28;;;;;;;7.38;67.55;95445.44;4995569;28;20054;-79
2024/01/05 10:43:09;;;;;;;7.63;4.25;;;;;;;7.43;67.17;95437.06;4995133;28;20092;-79
2024/01/05 10:45:38;;;;;;;6.45;3.60;;;;;;;7.50;67.26;95434.53;4995624;28;20046;-79
2024/01/05 10:48:10;;;;;;;8.30;3.83;;;;;;;7.56;66.94;95425.97;4995507;28;20057;-79
2024/01/05 10:50:41;;;;;;;8.82;4.05;;;;;;;7.61;66.87;95429.59;4995312;28;20538;-79
2024/01/05 10:53:09;;;;;;;9.02;5.18;;;;;;;7.66;66.65;95423.84;4995115;28;20109;-79
2024/01/05 10:55:38;;;;;;;8.10;4.93;;;;;;;7.70;66.44;95425.06;4995676;28;20081;-79
2024/01/05 10:58:08;;;;;;;11.85;5.97;;;;;;;7.73;66.58;95423.88;4995303;28;20051;-79
2024/01/05 11:00:35;;;;;;;13.43;8.48;;;;;;;7.76;66.55;95428.66;4998277;28;20522;-80
2024/01/05 11:03:11;;;;;;;10.45;6.50;;;;;;;7.76;66.21;95433.84;4995067;28;20462;-80
2024/01/05 11:05:41;;;;;;;10.85;5.82;;;;;;;7.77;66.44;95425.88;4995337;28;20133;-79
2024/01/05 11:08:23;;;;;;;11.35;5.82;;;;;;;7.79;66.45;95417.91;4995244;28;20141;-79
2024/01/05 11:11:07;;;;;;;9.93;5.43;;;;;;;7.81;66.11;95410.75;5011298;28;20070;-79
2024/01/05 11:13:53;;;;;;;10.50;4.93;;;;;;;7.83;66.40;95412.13;5017842;28;20070;-78
2024/01/05 11:16:41;;;;;;;8.02;4.45;;;;;;;7.87;66.37;95409.16;5001128;28;20054;-79
2024/01/05 11:19:30;;;;;;;9.95;5.43;;;;;;;7.89;66.13;95407.16;4996126;28;20050;-79
2024/01/05 11:22:01;;;;;;;7.10;3.88;;;;;;;7.89;66.20;95401.97;4995122;28;20105;-79
2024/01/05 11:24:29;;;;;;;5.00;3.15;;;;;;;7.90;66.50;95404.38;4995096;28;20133;-80
2024/01/05 11:26:57;;;;;;;3.42;2.53;;;;;;;7.91;66.37;95402.56;4995002;28;20131;-79
2024/01/05 11:29:48;;;;;;;7.10;3.55;;;;;;;7.95;66.24;95403.78;4995278;28;20092;-79
2024/01/05 11:32:34;;;;;;;9.20;3.65;;;;;;;7.95;66.26;95399.38;4994531;28;20054;-79
2024/01/05 11:35:04;;;;;;;8.48;3.35;;;;;;;7.98;66.28;95400.78;4995010;28;20133;-79
2024/01/05 11:37:32;;;;;;;5.60;2.63;;;;;;;7.98;66.01;95393.81;4994583;28;20138;-79
2024/01/05 11:40:00;;;;;;;6.07;3.38;;;;;;;8.00;66.34;95393.59;4994514;28;20110;-79
2024/01/05 11:42:29;;;;;;;4.13;2.63;;;;;;;8.03;66.34;95390.63;4994579;28;20050;-79
2024/01/05 11:44:58;;;;;;;6.43;2.97;;;;;;;8.06;66.37;95377.25;4994384;28;20506;-79
2024/01/05 11:47:45;;;;;;;6.68;2.80;;;;;;;8.09;66.23;95382.06;4994440;28;20042;-77
2024/01/05 11:50:31;;;;;;;6.32;2.60;;;;;;;8.13;66.15;95378.06;4994669;28;20145;-77
2024/01/05 11:53:07;;;;;;;5.90;2.83;;;;;;;8.17;67.20;95378.47;4994596;28;20054;-77
2024/01/05 11:55:39;;;;;;;4.72;2.47;;;;;;;8.19;66.51;95376.50;4994279;28;20061;-80
2024/01/05 11:58:07;;;;;;;;;;;;;;;8.21;66.48;95370.09;4994887;28;20100;-79
2024/01/05 12:00:36;;;;;;;6.90;2.65;;;;;;;8.24;67.22;95385.31;4993922;28;20032;-79
2024/01/05 12:03:04;;;;;;;7.45;2.80;;;;;;;8.27;67.33;95391.91;4993729;28;20050;-79
2024/01/05 12:05:34;;;;;;;4.75;2.78;;;;;;;8.25;66.92;95368.72;4993798;28;20582;-80
2024/01/05 12:08:01;;;;;;;8.75;3.90;;;;;;;8.26;66.80;95359.09;4994512;28;20046;-79
2024/01/05 12:10:30;;;;;;;6.70;3.25;;;;;;;8.29;66.72;95363.09;4994239;28;20529;-80
2024/01/05 12:12:58;;;;;;;6.53;3.80;;;;;;;8.31;66.69;95366.31;4993736;28;20133;-80
2024/01/05 12:15:26;;;;;;;6.65;3.40;;;;;;;8.32;66.79;95360.91;4993698;28;20054;-80
2024/01/05 12:18:03;;;;;;;7.43;2.95;;;;;;;8.36;66.93;95366.53;4994005;28;20445;-79
2024/01/05 12:20:31;;;;;;;5.88;3.30;;;;;;;8.37;66.97;95366.31;4993875;28;20060;-79
2024/01/05 12:23:00;;;;;;;7.32;3.47;;;;;;;8.40;66.74;95362.53;4993631;28;20065;-79
2024/01/05 12:25:28;;;;;;;4.03;3.30;;;;;;;8.43;66.63;95365.56;4993875;28;20120;-79
2024/01/05 12:27:56;;;;;;;5.43;3.70;;;;;;;8.45;66.61;95365.38;4993623;28;20133;-79
2024/01/05 12:30:23;;;;;;;7.03;4.07;;;;;;;8.47;66.57;95358.19;4994105;28;20054;-79
2024/01/05 12:32:52;;;;;;;6.88;4.07;;;;;;;8.47;66.55;95363.38;4993690;28;20053;-79
2024/01/05 12:35:20;;;;;;;6.10;4.00;;;;;;;8.47;66.51;95363.38;4993737;28;20073;-79
2024/01/05 12:37:52;;;;;;;6.40;3.55;;;;;;;8.47;66.67;95360.78;4993114;28;20129;-79
2024/01/05 12:40:24;;;;;;;7.13;3.67;;;;;;;8.48;66.31;95364.16;4993446;28;20054;-79
2024/01/05 12:42:52;;;;;;;7.40;3.80;;;;;;;8.47;66.56;95365.19;4993849;28;20050;-79
2024/01/05 12:45:22;;;;;;;6.55;4.15;;;;;;;8.47;66.39;95365.19;5011882;28;20111;-79
2024/01/05 12:47:51;;;;;;;6.57;4.03;;;;;;;8.46;66.53;95364.34;4993671;28;20057;-79
2024/01/05 12:50:26;;;;;;;10.95;4.45;;;;;;;8.47;66.90;95362.59;4993479;28;20410;-79
2024/01/05 12:52:54;;;;;;;8.60;4.10;;;;;;;8.46;66.49;95361.75;4992849;28;20054;-79
2024/01/05 12:55:30;;;;;;;11.27;4.65;;;;;;;8.48;66.27;95358.97;4993281;28;20137;-79
2024/01/05 12:58:02;;;;;;;4.72;2.92;;;;;;;8.48;66.23;95358.97;4992851;28;20043;-79
2024/01/05 13:00:30;;;;;;;7.53;3.55;;;;;;;8.45;66.34;95358.38;4992920;28;20054;-80
2024/01/05 13:02:58;;;;;;;5.38;2.78;;;;;;;8.46;66.54;95361.75;4992817;28;20054;-79
2024/01/05 13:05:29;;;;;;;7.93;3.42;;;;;;;8.45;66.57;95366.16;4993083;28;20461;-79
2024/01/05 13:07:58;;;;;;;5.38;3.25;;;;;;;8.47;66.61;95358.19;4993366;28;20050;-79
2024/01/05 13:10:26;;;;;;;7.97;4.28;;;;;;;8.46;66.61;95353.97;4993288;28;20060;-80
2024/01/05 13:12:55;;;;;;;5.05;3.55;;;;;;;8.47;66.61;95349.59;5000415;28;20078;-80
2024/01/05 13:15:23;;;;;;;3.70;2.75;;;;;;;8.47;66.62;95347.00;5001343;28;20138;-80
2024/01/05 13:17:51;;;;;;;4.10;2.92;;;;;;;8.48;67.56;95346.78;5001590;28;20465;-80
2024/01/05 13:20:22;;;;;;;6.80;3.10;;;;;;;8.48;66.89;95349.38;4995525;28;20050;-80
2024/01/05 13:22:50;;;;;;;7.50;3.58;;;;;;;8.47;67.14;95347.00;4993549;28;20602;-80
2024/01/05 13:25:18;;;;;;;7.13;4.53;;;;;;;8.46;67.23;95353.97;4993793;28;20134;-79
2024/01/05 13:27:46;;;;;;;10.40;4.57;;;;;;;8.43;67.20;95357.75;4993289;28;20057;-79
2024/01/05 13:30:15;;;;;;;10.75;4.45;;;;;;;8.39;67.04;95351.34;4993163;28;20466;-79
2024/01/05 13:32:43;;;;;;;12.60;5.32;;;;;;;8.33;67.18;95356.53;4993072;28;20054;-80
2024/01/05 13:35:11;;;;;;;12.07;5.30;;;;;;;8.30;67.47;95349.94;4992891;28;20054;-79
2024/01/05 13:37:39;;;;;;;10.27;5.32;;;;;;;8.25;67.58;95350.53;4992791;28;20138;-79
2024/01/05 13:40:08;;;;;;;11.73;5.75;;;;;;;8.21;67.76;95344.13;4992770;28;20078;-80
2024/01/05 13:42:36;;;;;;;13.43;5.63;;;;;;;8.21;67.86;95348.53;4993055;28;20050;-79
2024/01/05 13:45:06;;;;;;;9.20;5.10;;;;;;;8.20;68.08;95352.13;4992897;28;20050;-79
2024/01/05 13:47:35;;;;;;;11.27;5.20;;;;;;;8.17;68.28;95355.09;4992826;28;20050;-79
2024/01/05 13:50:03;;;;;;;11.35;5.50;;;;;;;8.17;68.38;95353.31;4994445;28;20410;-79
2024/01/05 13:52:31;;;;;;;8.40;5.10;;;;;;;8.16;68.32;95362.09;4996285;28;20057;-79
2024/01/05 13:54:59;;;;;;;9.93;5.13;;;;;;;8.17;68.94;95363.69;4996587;28;20494;-79
2024/01/05 13:57:26;;;;;;;10.15;4.93;;;;;;;8.19;68.91;95359.09;4996216;28;20097;-79
2024/01/05 16:03:59;;;;;;;7.43;3.90;;;;;;;7.80;68.80;95409.91;6109406;23;20988;-77
2024/01/05 16:06:27;;;;;;;9.57;4.22;;;;;;;7.77;69.17;95415.50;4993511;28;20536;-77
2024/01/05 16:08:55;;;;;;;6.75;3.90;;;;;;;7.78;69.32;95408.50;4993639;28;20049;-79
2024/01/05 16:11:29;;;;;;;8.35;3.83;;;;;;;7.76;69.05;95411.31;4993589;28;20466;-79
2024/01/05 16:13:56;;;;;;;8.18;4.22;;;;;;;7.76;69.19;95411.31;4993159;28;20153;-79
2024/01/05 16:16:25;;;;;;;9.90;4.00;;;;;;;7.73;69.03;95406.50;4993578;28;20050;-79
2024/01/05 17:00:41;;;;;;;7.68;4.07;;;;;;;7.62;70.26;95391.47;5090819;23;20094;-82
2024/01/05 17:03:13;;;;;;;9.68;4.93;;;;;;;7.64;70.15;95389.50;5001409;28;20047;-83
2024/01/05 17:05:42;;;;;;;12.85;5.22;;;;;;;7.64;69.70;95389.50;5000181;28;20061;-79
2024/01/05 17:08:09;;;;;;;11.35;5.70;;;;;;;7.66;69.98;95397.88;5002136;28;20167;-80
2024/01/05 17:10:37;;;;;;;13.50;5.10;;;;;;;7.66;69.51;95391.91;5001320;28;20138;-79
2024/01/05 17:13:04;;;;;;;12.52;6.00;;;;;;;7.66;69.82;95379.72;4969704;28;20074;-83
2024/01/05 17:15:32;;;;;;;11.13;6.40;;;;;;;7.66;70.00;95384.13;4981566;28;20063;-82
2024/01/05 17:18:01;;;;;;;17.45;7.30;;;;;;;7.67;70.13;95386.50;4974722;28;20086;-80
2024/01/05 17:20:29;;;;;;;18.70;8.68;;;;;;;7.66;69.64;95382.31;4963801;28;20138;-82
2024/01/05 17:22:58;;;;;;;14.63;7.82;;;;;;;7.66;69.71;95381.53;4994458;28;20066;-79
2024/01/05 17:25:26;;;;;;;15.95;7.13;;;;;;;7.65;69.55;95385.88;4978345;28;20054;-80
2024/01/05 17:27:53;;;;;;;13.60;6.95;;;;;;;7.65;70.62;95388.47;4965284;28;20090;-81
2024/01/05 17:30:21;;;;;;;11.52;5.30;;;;;;;7.66;70.09;95378.94;4967750;28;20058;-82
2024/01/05 17:32:49;;;;;;;9.35;5.63;;;;;;;7.63;69.67;95388.69;4984791;28;20070;-80
2024/01/05 17:35:19;;;;;;;10.13;5.20;;;;;;;7.63;69.68;95393.06;4985133;28;20051;-79
2024/01/05 17:37:47;;;;;;;10.52;5.68;;;;;;;7.62;69.67;95386.28;4982238;28;20130;-77
2024/01/05 17:40:15;;;;;;;9.85;4.97;;;;;;;7.62;69.88;95397.47;4980110;28;20490;-78
2024/01/05 17:42:43;;;;;;;12.13;5.45;;;;;;;7.64;69.86;95405.06;4984674;28;20078;-78
2024/01/05 17:45:10;;;;;;;13.80;4.80;;;;;;;7.64;70.03;95405.06;4983794;28;20047;-81
2024/01/05 17:47:38;;;;;;;11.20;5.57;;;;;;;7.65;70.59;95404.06;4984396;28;20565;-80
2024/01/05 17:50:07;;;;;;;13.10;5.50;;;;;;;7.66;71.48;95408.25;4984794;28;20075;-78
2024/01/05 17:52:36;;;;;;;8.38;4.80;;;;;;;7.68;71.31;95408.88;4983986;28;20558;-78
2024/01/05 17:55:04;;;;;;;8.93;5.25;;;;;;;7.70;71.34;95409.50;4985088;28;20057;-81
2024/01/05 17:57:32;;;;;;;9.65;5.28;;;;;;;7.70;71.95;95414.69;4999355;28;20070;-80
2024/01/05 17:59:59;;;;;;;11.60;6.38;;;;;;;7.71;71.47;95421.47;4985769;28;20046;-85
2024/01/05 18:02:27;;;;;;;12.85;8.23;;;;;;;7.70;70.79;95427.66;4983384;28;20510;-81
2024/01/05 18:04:55;;;;;;;14.02;7.32;;;;;;;7.69;70.74;95423.44;4972056;28;20142;-80
2024/01/05 18:07:23;;;;;;;12.02;6.38;;;;;;;7.69;70.59;95426.03;4965313;28;20051;-81
2024/01/05 18:09:53;;;;;;;9.52;5.55;;;;;;;7.68;70.73;95427.03;4966383;28;20043;-81
2024/01/05 18:12:21;;;;;;;7.47;5.20;;;;;;;7.68;70.61;95426.25;4983697;28;20054;-82
2024/01/05 18:14:49;;;;;;;12.77;6.03;;;;;;;7.67;70.79;95435.03;4973373;28;20047;-82
2024/01/05 18:17:16;;;;;;;10.65;5.65;;;;;;;7.66;70.84;95434.22;4964979;28;20116;-80
2024/01/05 18:19:44;;;;;;;9.43;5.97;;;;;;;7.64;71.21;95431.00;4963530;28;20047;-81
2024/01/05 18:22:13;;;;;;;9.85;5.60;;;;;;;7.63;70.89;95424.22;4963949;28;20111;-79
2024/01/05 18:24:41;;;;;;;8.73;5.78;;;;;;;7.61;71.49;95426.22;4965297;28;20137;-80
2024/01/05 18:27:10;;;;;;;8.15;5.03;;;;;;;7.60;71.56;95427.19;4965240;28;20066;-82
2024/01/05 18:29:37;;;;;;;9.40;4.95;;;;;;;7.59;71.13;95423.00;4964669;28;20047;-80
2024/01/05 18:32:06;;;;;;;10.85;4.97;;;;;;;7.60;71.27;95424.59;4980485;28;20086;-78
2024/01/05 18:34:34;;;;;;;8.05;4.78;;;;;;;7.61;72.31;95421.03;4976910;28;20054;-82
2024/01/05 18:37:02;;;;;;;8.43;5.07;;;;;;;7.62;72.62;95430.41;4964262;28;20058;-82
2024/01/05 18:39:30;;;;;;;9.32;5.25;;;;;;;7.62;71.98;95433.00;4964457;28;20098;-81
2024/01/05 18:41:57;;;;;;;8.18;5.82;;;;;;;7.62;71.68;95431.19;4964291;28;20059;-78
2024/01/05 18:44:26;;;;;;;11.15;5.82;;;;;;;7.62;72.48;95431.19;4976050;28;20049;-86
2024/01/05 18:46:54;;;;;;;9.27;6.45;;;;;;;7.62;72.94;95426.00;4981736;28;20085;-84
2024/01/05 18:49:21;;;;;;;11.65;5.85;;;;;;;7.61;72.50;95434.81;4983226;28;20054;-82
2024/01/05 18:51:51;;;;;;;8.07;6.07;;;;;;;7.62;73.62;95433.78;4983372;28;20062;-86
2024/01/05 18:54:19;;;;;;;11.70;6.22;;;;;;;7.64;73.48;95433.59;4973664;28;20514;-83
2024/01/05 18:56:47;;;;;;;10.98;5.95;;;;;;;7.64;72.51;95431.00;4985067;28;20056;-80
2024/01/05 18:59:15;;;;;;;8.82;5.50;;;;;;;7.63;73.63;95430.22;5001574;28;20065;-82
2024/01/05 19:01:47;;;;;;;10.02;5.40;;;;;;;7.64;73.68;95428.41;4977635;28;20114;-83
2024/01/05 19:04:14;;;;;;;9.70;5.72;;;;;;;7.61;72.53;95421.81;4980514;28;20051;-84
2024/01/05 19:06:43;;;;;;;11.77;5.80;;;;;;;7.58;73.07;95421.41;4982939;28;20075;-86
2024/01/05 19:09:11;;;;;;;10.02;5.60;;;;;;;7.56;73.39;95426.78;4971127;28;20051;-82
2024/01/05 19:11:40;;;;;;;8.63;5.47;;;;;;;7.53;73.16;95429.75;4981325;28;20109;-82
2024/01/05 19:14:08;;;;;;;10.38;5.78;;;;;;;7.50;72.21;95434.53;4969312;28;20089;-83
2024/01/05 19:16:41;;;;;;;9.85;6.32;;;;;;;7.47;73.27;95445.28;4971313;28;20050;-85
2024/01/05 19:19:10;;;;;;;;;;;;;;;7.47;73.30;95445.28;4965908;28;20047;-83
2024/01/05 19:21:40;;;;;;;10.05;6.18;;;;;;;7.43;72.75;95445.69;4963208;28;19965;-85
2024/01/05 19:24:23;;;;;;;12.35;6.18;;;;;;;7.39;72.66;95444.47;4976917;28;20134;-79
2024/01/05 19:26:50;;;;;;;10.93;6.13;;;;;;;7.39;72.51;95460.03;4975297;28;20074;-82
2024/01/05 19:29:18;;;;;;;10.43;6.55;;;;;;;7.36;72.27;95460.38;4982689;28;20554;-78
2024/01/05 19:31:46;;;;;;;13.88;7.05;;;;;;;7.34;72.34;95469.34;4982730;28;20082;-79
2024/01/05 19:34:16;;;;;;;11.65;6.80;;;;;;;7.32;72.34;95474.72;4981597;28;20094;-80
2024/01/05 19:36:44;;;;;;;9.20;6.80;;;;;;;7.30;72.34;95478.50;4981774;28;20054;-85
2024/01/05 19:39:12;;;;;;;9.35;5.78;;;;;;;7.26;72.40;95474.66;4981218;28;20418;-81
2024/01/05 19:41:44;;;;;;;8.13;5.75;;;;;;;7.22;72.44;95479.44;4981066;28;20581;-79
2024/01/05 19:44:14;;;;;;;8.93;5.88;;;;;;;7.21;72.28;95467.47;4982167;28;20046;-83
2024/01/05 19:46:41;;;;;;;9.70;5.82;;;;;;;7.18;72.47;95467.84;4979495;28;20109;-87
2024/01/05 19:49:09;;;;;;;12.38;6.78;;;;;;;7.17;72.86;95463.63;4983715;28;20053;-79
2024/01/05 19:51:45;;;;;;;8.30;5.15;;;;;;;7.18;73.20;95460.06;4971331;28;20118;-83
2024/01/05 19:54:15;;;;;;;14.13;6.50;;;;;;;7.17;72.96;95455.84;4961631;28;20043;-80
2024/01/05 19:56:43;;;;;;;9.18;6.07;;;;;;;7.17;72.74;95455.84;4981079;28;20061;-82
2024/01/05 19:59:11;;;;;;;9.88;5.63;;;;;;;7.16;72.89;95459.44;4961820;28;20115;-82
2024/01/05 20:01:44;;;;;;;10.75;6.03;;;;;;;7.15;73.11;95457.81;4961045;28;20081;-78
2024/01/05 20:04:13;;;;;;;11.98;5.80;;;;;;;7.16;72.92;95465.44;4960606;29;20051;-85
2024/01/05 20:06:41;;;;;;;12.73;6.05;;;;;;;7.16;73.21;95460.25;4961087;28;20051;-85
2024/01/05 20:09:10;;;;;;;11.85;4.90;;;;;;;7.17;73.10;95463.63;4960286;28;20137;-85
2024/01/05 20:11:38;;;;;;;10.68;5.88;;;;;;;7.16;73.20;95464.63;4959964;28;20054;-81
2024/01/05 20:14:06;;;;;;;10.50;5.60;;;;;;;7.15;73.30;95463.84;4960132;28;20055;-84
2024/01/05 20:16:33;;;;;;;10.30;5.68;;;;;;;7.17;73.32;95466.22;4960184;28;20130;-85
2024/01/05 20:19:03;;;;;;;11.48;6.07;;;;;;;7.19;73.28;95464.25;4959782;28;20057;-80
2024/01/05 20:21:31;;;;;;;15.15;6.97;;;;;;;7.20;73.29;95469.25;4960163;28;20058;-85
2024/01/05 20:24:01;;;;;;;10.90;6.05;;;;;;;7.21;73.13;95459.69;4960764;28;20219;-80
2024/01/05 20:26:30;;;;;;;9.50;6.05;;;;;;;7.21;73.27;95462.28;4959779;28;20092;-78
2024/01/05 20:28:59;;;;;;;10.18;6.20;;;;;;;7.20;73.04;95460.69;4961026;28;20047;-82
2024/01/05 20:31:27;;;;;;;9.60;6.50;;;;;;;7.21;73.29;95464.88;4960934;28;20047;-86
2024/01/05 20:33:56;;;;;;;11.60;6.90;;;;;;;7.19;73.11;95459.06;4961812;28;20053;-82
2024/01/05 20:36:23;;;;;;;10.65;7.40;;;;;;;7.17;73.26;95458.44;4962566;28;20079;-87
2024/01/05 20:38:51;;;;;;;11.00;7.28;;;;;;;7.15;73.65;95468.19;4957620;28;20061;-87
2024/01/05 20:41:19;;;;;;;12.63;7.78;;;;;;;7.15;74.01;95463.03;4959562;28;20431;-87
2024/01/05 20:43:48;;;;;;;11.05;6.95;;;;;;;7.16;73.84;95452.47;4960007;28;20075;-87
2024/01/05 20:46:16;;;;;;;8.55;6.35;;;;;;;7.20;74.07;95450.31;4960252;28;20051;-80
2024/01/05 20:48:44;;;;;;;8.60;5.43;;;;;;;7.22;73.65;95440.53;4959385;28;20051;-79
2024/01/05 20:51:11;;;;;;;9.88;4.78;;;;;;;7.20;73.35;95442.53;4959614;28;20058;-82
2024/01/05 20:53:39;;;;;;;8.45;4.13;;;;;;;7.16;73.28;95443.88;4960681;28;20062;-83
2024/01/05 20:56:07;;;;;;;13.48;5.70;;;;;;;7.13;73.47;95452.84;4960397;28;20055;-84
2024/01/05 20:58:34;;;;;;;12.35;7.03;;;;;;;7.13;73.75;95446.88;4959350;28;20059;-79
2024/01/05 21:01:04;;;;;;;11.48;6.97;;;;;;;7.11;73.60;95446.25;4960937;28;20083;-82
2024/01/05 21:03:32;;;;;;;9.77;6.65;;;;;;;7.10;73.81;95442.03;4961460;28;20059;-79
2024/01/05 21:06:01;;;;;;;10.40;7.47;;;;;;;7.08;74.40;95452.59;4961358;28;20110;-77
2024/01/05 21:08:29;;;;;;;6.85;5.60;;;;;;;7.06;75.55;95443.41;4961086;28;20113;-85
2024/01/05 21:10:57;;;;;;;8.05;5.97;;;;;;;7.11;76.23;95441.06;4960805;28;20051;-80
2024/01/05 21:13:25;;;;;;;9.60;7.43;;;;;;;7.12;75.29;95438.25;4960547;28;20487;-81
2024/01/05 21:15:53;;;;;;;12.23;8.38;;;;;;;7.10;74.87;95429.88;4958987;28;20079;-84
2024/01/05 21:18:22;;;;;;;9.75;7.55;;;;;;;7.11;74.95;95430.69;4957264;28;20511;-84
2024/01/05 21:20:50;;;;;;;11.48;7.28;;;;;;;7.12;75.68;95437.47;4957928;28;20487;-80
2024/01/05 21:23:18;;;;;;;10.75;7.68;;;;;;;7.13;75.93;95439.09;4956961;28;20054;-79
2024/01/05 21:25:45;;;;;;;13.45;8.38;;;;;;;7.16;76.26;95443.88;4957465;28;20114;-79
2024/01/05 21:28:13;;;;;;;14.32;8.60;;;;;;;7.14;75.64;95451.06;4957515;28;20102;-78
2024/01/05 21:30:43;;;;;;;14.02;8.00;;;;;;;7.10;75.19;95445.44;4956578;28;20430;-78
2024/01/05 21:33:10;;;;;;;10.20;5.88;;;;;;;7.10;74.88;95444.63;4958614;28;20066;-81
2024/01/05 21:35:41;;;;;;;10.55;6.40;;;;;;;7.07;74.74;95439.84;4959258;28;20055;-77
2024/01/05 21:38:08;;;;;;;10.68;5.20;;;;;;;7.05;74.86;95441.81;4959118;28;20615;-81
2024/01/05 21:40:36;;;;;;;10.02;5.97;;;;;;;7.03;74.75;95443.78;4958761;28;20083;-78
2024/01/05 21:43:04;;;;;;;9.98;5.25;;;;;;;6.99;74.77;95445.94;4958095;28;20057;-81
2024/01/05 21:45:31;;;;;;;8.55;4.72;;;;;;;6.96;75.61;95439.34;4958460;28;20062;-86
2024/01/05 21:47:59;;;;;;;9.80;6.00;;;;;;;7.01;76.46;95442.19;4958852;28;20512;-79
2024/01/05 21:50:27;;;;;;;7.75;4.97;;;;;;;7.05;75.85;95447.78;4958968;28;20435;-81
2024/01/05 21:52:56;;;;;;;7.70;6.13;;;;;;;7.07;75.98;95458.00;4958647;28;20053;-86
2024/01/05 21:55:23;;;;;;;9.52;5.03;;;;;;;7.10;76.49;95448.03;4958418;28;20071;-85
2024/01/05 21:57:51;;;;;;;7.60;4.97;;;;;;;7.14;76.44;95459.63;4958642;28;20586;-77
2024/01/05 22:00:19;;;;;;;8.77;5.28;;;;;;;7.15;77.02;95458.66;4958431;28;20052;-77
2024/01/05 22:02:47;;;;;;;9.73;5.90;;;;;;;7.18;77.73;95460.06;4958313;28;20055;-83
2024/01/05 22:05:15;;;;;;;8.30;5.63;;;;;;;7.18;77.99;95462.66;4959493;28;20146;-85
2024/01/05 22:07:43;;;;;;;12.18;7.30;;;;;;;7.15;76.83;95452.66;4958975;28;20083;-81
2024/01/05 22:10:12;;;;;;;11.32;7.40;;;;;;;7.10;76.36;95458.41;4958415;28;20606;-86
2024/01/05 22:12:40;;;;;;;15.55;7.82;;;;;;;7.07;76.34;95455.41;4961554;28;20142;-85
2024/01/05 22:15:08;;;;;;;11.07;8.50;;;;;;;7.08;77.03;95454.41;4962124;28;20450;-78